Smyrna Mills, Maine
Current Conditions -  °F | °C
As of 1:53 AM on Wednesday 26 Nov 2014 (Local Time) from KHUL Reporting Station
Overcast Overcast  
Wind Chill: 34°   Ceiling: 5500
Heat Index: 43°   Visibility: 10mi
Dew Point: 24°   Wind: 21mph
Humidity: 47%   Direction: 240°WSW
Pressure: 29.99"   Gusts: 35mph
Location:  46.13°N, 68.17°W
Report Text: KHUL 260653Z AUTO 24018G30KT 10SM OVC055 06/M04 A2999 RMK AO2 PK WND 25030/0651 SLP158 T00611044
Loading
Personal Weather Stations






























Interactive Weather Map New forecast layout! Learn more

10-Day Weather Forecast

Advertisements
Track Severe Weather on mobile